createdAt,value
2022-09-15T00:01:30.189Z,99513.59
2022-09-15T00:03:57.989Z,99508.91
2022-09-15T00:06:25.727Z,99512.84
2022-09-15T00:08:53.689Z,99517.88
2022-09-15T00:11:28.220Z,99517.13
2022-09-15T00:13:57.814Z,99522.16
2022-09-15T00:16:28.553Z,99516.78
2022-09-15T00:18:56.696Z,99513.28
2022-09-15T00:21:28.488Z,99511.19
2022-09-15T00:23:56.190Z,99514.25
2022-09-15T00:26:26.541Z,99515.78
2022-09-15T00:28:56.191Z,99514.25
2022-09-15T00:31:26.536Z,99516.09
2022-09-15T00:33:56.852Z,99517.94
2022-09-15T00:36:26.452Z,99509.72
2022-09-15T00:38:54.358Z,99499.94
2022-09-15T00:41:24.127Z,99499.94
2022-09-15T00:44:05.604Z,99506.22
2022-09-15T00:46:41.217Z,99500.84
2022-09-15T00:49:18.780Z,99507.56
2022-09-15T00:51:52.212Z,99506.31
2022-09-15T00:54:34.510Z,99508.63
2022-09-15T00:57:09.795Z,99509.72
2022-09-15T00:59:40.493Z,99505.72
2022-09-15T01:02:25.420Z,99508.81
2022-09-15T01:04:58.403Z,99505.72
2022-09-15T01:07:58.110Z,99500.72
2022-09-15T01:10:38.296Z,99497.78
2022-09-15T01:13:10.878Z,99494.75
2022-09-15T01:16:07.383Z,99497.94
2022-09-15T01:18:50.708Z,99501.22
2022-09-15T01:21:36.667Z,99496.50
2022-09-15T01:24:41.693Z,99491.81
2022-09-15T01:27:41.471Z,99496.19
2022-09-15T01:30:09.716Z,99496.66
2022-09-15T01:33:04.133Z,99498.31
2022-09-15T01:35:53.161Z,99493.59
2022-09-15T01:38:44.154Z,99480.22
2022-09-15T01:41:27.313Z,99490.41
2022-09-15T01:44:16.695Z,99484.31
2022-09-15T01:46:48.656Z,99484.75
2022-09-15T01:49:22.625Z,99478.84
2022-09-15T01:51:53.513Z,99479.59
2022-09-15T01:54:36.002Z,99478.69
2022-09-15T01:57:03.938Z,99476.72
2022-09-15T01:59:31.638Z,99481.00
2022-09-15T02:02:12.692Z,99489.53
2022-09-15T02:05:00.179Z,99471.53
2022-09-15T02:08:10.089Z,99461.81
2022-09-15T02:10:44.060Z,99457.97
2022-09-15T02:13:19.761Z,99463.00
2022-09-15T02:15:54.017Z,99462.25
2022-09-15T02:19:00.088Z,99448.09
2022-09-15T02:22:10.726Z,99447.78
2022-09-15T02:24:52.998Z,99450.22
2022-09-15T02:27:25.230Z,99441.09
2022-09-15T02:29:58.216Z,99438.34
2022-09-15T02:32:28.080Z,99435.91
2022-09-15T02:34:57.185Z,99437.59
2022-09-15T02:37:26.400Z,99432.88
2022-09-15T02:39:58.125Z,99436.06
2022-09-15T02:42:31.726Z,99431.81
2022-09-15T02:45:01.499Z,99422.34
2022-09-15T02:47:29.508Z,99429.81
2022-09-15T02:49:57.211Z,99426.19
2022-09-15T02:52:24.924Z,99423.44
2022-09-15T02:54:52.341Z,99420.72
2022-09-15T02:57:19.843Z,99425.41
2022-09-15T03:00:06.937Z,99419.63
2022-09-15T03:02:34.566Z,99415.22
2022-09-15T03:05:02.416Z,99412.03
2022-09-15T03:07:30.193Z,99412.78
2022-09-15T03:09:58.487Z,99397.84
2022-09-15T03:12:26.643Z,99401.69
2022-09-15T03:14:54.305Z,99396.97
2022-09-15T03:17:21.711Z,99401.22
2022-09-15T03:19:50.815Z,99389.06
2022-09-15T03:22:18.136Z,99386.34
2022-09-15T03:24:45.737Z,99382.19
2022-09-15T03:27:14.254Z,99388.13
2022-09-15T03:29:41.666Z,99385.09
2022-09-15T03:32:09.139Z,99374.28
2022-09-15T03:34:36.871Z,99382.50
2022-09-15T03:37:05.393Z,99376.22
2022-09-15T03:39:33.329Z,99371.53
2022-09-15T03:42:00.999Z,99374.56
2022-09-15T03:44:28.872Z,99379.59
2022-09-15T03:46:58.118Z,99376.41
2022-09-15T03:49:26.314Z,99380.66
2022-09-15T03:51:53.683Z,99368.94
2022-09-15T03:54:21.237Z,99373.19
2022-09-15T03:56:49.183Z,99369.69
2022-09-15T03:59:18.930Z,99368.03
2022-09-15T04:01:48.272Z,99368.03
2022-09-15T04:04:16.556Z,99365.19
2022-09-15T04:06:44.969Z,99363.50
2022-09-15T04:09:12.597Z,99358.81
2022-09-15T04:11:40.609Z,99356.81
2022-09-15T04:14:08.157Z,99363.81
2022-09-15T04:16:35.658Z,99358.81
2022-09-15T04:19:03.566Z,99355.28
2022-09-15T04:21:32.103Z,99361.53
2022-09-15T04:23:59.509Z,99352.84
2022-09-15T04:26:36.583Z,99353.63
2022-09-15T04:29:11.656Z,99352.41
2022-09-15T04:31:39.637Z,99348.00
2022-09-15T04:34:07.104Z,99353.47
2022-09-15T04:36:35.043Z,99354.69
2022-09-15T04:39:02.742Z,99348.00
2022-09-15T04:41:30.419Z,99348.28
2022-09-15T04:43:58.608Z,99345.56
2022-09-15T04:46:26.585Z,99343.13
2022-09-15T04:48:54.357Z,99347.84
2022-09-15T04:51:23.900Z,99351.34
2022-09-15T04:53:52.788Z,99356.81
2022-09-15T04:56:23.654Z,99364.28
2022-09-15T04:59:03.272Z,99373.13
2022-09-15T05:01:36.127Z,99382.94
2022-09-15T05:04:05.054Z,99378.66
2022-09-15T05:06:35.059Z,99371.94
2022-09-15T05:09:10.082Z,99388.66
2022-09-15T05:11:38.703Z,99386.50
2022-09-15T05:14:07.105Z,99390.59
2022-09-15T05:16:35.301Z,99398.50
2022-09-15T05:19:04.781Z,99398.66
2022-09-15T05:21:32.985Z,99399.53
2022-09-15T05:24:00.583Z,99399.69
2022-09-15T05:26:29.648Z,99408.47
2022-09-15T05:28:57.920Z,99413.34
2022-09-15T05:31:31.523Z,99427.59
2022-09-15T05:34:02.894Z,99431.66
2022-09-15T05:36:30.729Z,99438.00
2022-09-15T05:38:58.478Z,99439.81
2022-09-15T05:41:28.295Z,99435.22
2022-09-15T05:43:58.070Z,99431.25
2022-09-15T05:46:27.394Z,99434.34
2022-09-15T05:48:57.819Z,99432.66
2022-09-15T05:51:25.634Z,99440.44
2022-09-15T05:53:53.184Z,99445.47
2022-09-15T05:56:23.281Z,99452.91
2022-09-15T05:58:52.213Z,99454.56
2022-09-15T06:01:25.695Z,99452.44
2022-09-15T06:03:54.625Z,99441.09
2022-09-15T06:06:23.855Z,99446.44
2022-09-15T06:08:58.587Z,99442.88
2022-09-15T06:11:30.045Z,99451.13
2022-09-15T06:14:03.652Z,99442.94
2022-09-15T06:16:34.398Z,99444.84
2022-09-15T06:19:02.228Z,99444.13
2022-09-15T06:21:32.030Z,99455.09
2022-09-15T06:24:03.844Z,99463.06
2022-09-15T06:26:31.338Z,99464.00
2022-09-15T06:29:01.602Z,99466.00
2022-09-15T06:31:32.228Z,99468.78
2022-09-15T06:34:00.752Z,99472.00
2022-09-15T06:36:30.263Z,99485.25
2022-09-15T06:38:58.966Z,99486.06
2022-09-15T06:41:38.195Z,99488.50
2022-09-15T06:44:22.191Z,99499.16
2022-09-15T06:46:50.776Z,99489.13
2022-09-15T06:49:19.179Z,99486.09
2022-09-15T06:51:46.771Z,99482.88
2022-09-15T06:54:16.184Z,99489.72
2022-09-15T06:56:44.980Z,99490.69
2022-09-15T06:59:14.596Z,99486.09
2022-09-15T07:01:46.519Z,99498.47
2022-09-15T07:04:14.244Z,99505.78
2022-09-15T07:06:43.129Z,99505.03
2022-09-15T07:09:10.825Z,99505.94
2022-09-15T07:11:38.580Z,99499.25
2022-09-15T07:14:06.252Z,99492.22
2022-09-15T07:16:33.869Z,99498.63
2022-09-15T07:19:03.654Z,99509.59
2022-09-15T07:21:31.239Z,99519.06
2022-09-15T07:23:59.976Z,99519.53
2022-09-15T07:26:31.028Z,99525.47
2022-09-15T07:29:01.767Z,99527.91
2022-09-15T07:31:33.411Z,99534.31
2022-09-15T07:34:02.290Z,99536.00
2022-09-15T07:36:30.873Z,99531.38
2022-09-15T07:38:58.788Z,99532.34
2022-09-15T07:41:31.674Z,99541.03
2022-09-15T07:44:00.627Z,99533.38
2022-09-15T07:46:32.540Z,99530.97
2022-09-15T07:49:00.915Z,99539.78
2022-09-15T07:51:28.790Z,99540.72
2022-09-15T07:53:56.396Z,99543.28
2022-09-15T07:56:24.550Z,99542.06
2022-09-15T07:58:52.610Z,99552.91
2022-09-15T08:01:22.381Z,99553.19
2022-09-15T08:03:52.457Z,99546.16
2022-09-15T08:06:23.733Z,99552.28
2022-09-15T08:08:56.269Z,99561.28
2022-09-15T08:11:27.318Z,99567.53
2022-09-15T08:13:54.851Z,99570.59
2022-09-15T08:16:24.446Z,99589.53
2022-09-15T08:18:53.840Z,99582.47
2022-09-15T08:21:22.828Z,99594.56
2022-09-15T08:23:56.658Z,99593.59
2022-09-15T08:26:27.149Z,99592.09
2022-09-15T08:28:54.969Z,99602.94
2022-09-15T08:31:24.430Z,99604.16
2022-09-15T08:33:55.396Z,99606.59
2022-09-15T08:36:24.613Z,99604.13
2022-09-15T08:38:52.174Z,99611.16
2022-09-15T08:41:36.563Z,99605.50
2022-09-15T08:44:38.429Z,99617.59
2022-09-15T08:47:27.658Z,99618.22
2022-09-15T08:50:20.761Z,99622.97
2022-09-15T08:53:01.026Z,99620.34
2022-09-15T08:55:50.334Z,99627.03
2022-09-15T08:58:24.761Z,99636.50
2022-09-15T09:01:11.330Z,99660.50
2022-09-15T09:03:58.236Z,99646.47
2022-09-15T09:07:03.887Z,99654.25
2022-09-15T09:09:52.681Z,99672.25
2022-09-15T09:12:44.945Z,99664.75
2022-09-15T09:15:31.494Z,99670.59
2022-09-15T09:18:19.915Z,99663.41
2022-09-15T09:21:17.875Z,99664.50
2022-09-15T09:24:26.539Z,99675.16
2022-09-15T09:26:56.465Z,99695.94
2022-09-15T09:29:40.414Z,99690.59
2022-09-15T09:32:21.811Z,99697.00
2022-09-15T09:35:05.185Z,99680.81
2022-09-15T09:37:33.982Z,99665.22
2022-09-15T09:40:01.978Z,99682.59
2022-09-15T09:42:34.835Z,99657.72
2022-09-15T09:45:03.542Z,99653.91
2022-09-15T09:47:33.379Z,99624.13
2022-09-15T09:50:01.142Z,99618.00
2022-09-15T09:52:37.947Z,99611.78
2022-09-15T09:55:20.107Z,99601.41
2022-09-15T09:57:47.856Z,99603.09
2022-09-15T10:00:38.876Z,99579.75
2022-09-15T10:03:28.010Z,99565.72
2022-09-15T10:06:15.676Z,99543.47
2022-09-15T10:09:05.232Z,99527.75
2022-09-15T10:11:51.539Z,99530.06
2022-09-15T10:14:35.267Z,99520.59
2022-09-15T10:17:20.977Z,99498.91
2022-09-15T10:19:58.824Z,99490.50
2022-09-15T10:22:40.443Z,99489.75
2022-09-15T10:25:20.374Z,99485.63
2022-09-15T10:28:09.839Z,99474.16
2022-09-15T10:30:38.522Z,99482.22
2022-09-15T10:33:20.487Z,99468.28
2022-09-15T10:35:48.293Z,99467.59
2022-09-15T10:38:30.159Z,99474.72
2022-09-15T10:41:28.897Z,99455.56
2022-09-15T10:44:25.928Z,99445.94
2022-09-15T10:47:38.240Z,99459.19
2022-09-15T10:50:41.662Z,99440.63
2022-09-15T10:53:40.578Z,99447.41
2022-09-15T10:56:40.001Z,99449.22
2022-09-15T10:59:40.565Z,99439.56
2022-09-15T11:02:40.222Z,99429.34
2022-09-15T11:05:42.855Z,99434.06
2022-09-15T11:08:49.180Z,99430.03
2022-09-15T11:11:32.486Z,99443.13
2022-09-15T11:14:08.099Z,99433.31
2022-09-15T11:17:39.698Z,99440.44
2022-09-15T11:20:43.872Z,99430.94
2022-09-15T11:23:19.219Z,99422.78
2022-09-15T11:26:09.932Z,99434.69
2022-09-15T11:28:57.498Z,99418.00
2022-09-15T11:31:42.592Z,99416.59
2022-09-15T11:34:29.060Z,99412.22
2022-09-15T11:37:07.231Z,99400.72
2022-09-15T11:39:52.467Z,99400.72
2022-09-15T11:42:53.417Z,99397.19
2022-09-15T11:45:26.492Z,99391.22
2022-09-15T11:48:04.434Z,99379.06
2022-09-15T11:50:41.487Z,99393.13
2022-09-15T11:53:38.690Z,99374.91
2022-09-15T11:56:28.932Z,99371.72
2022-09-15T11:59:31.538Z,99383.88
2022-09-15T12:02:38.885Z,99403.47
2022-09-15T12:05:22.210Z,99405.44
2022-09-15T12:08:27.532Z,99409.00
2022-09-15T12:10:59.841Z,99405.91
2022-09-15T12:13:28.698Z,99407.63
2022-09-15T12:15:57.495Z,99413.06
2022-09-15T12:19:14.591Z,99410.94
2022-09-15T12:21:58.077Z,99411.31
2022-09-15T12:24:50.791Z,99408.50
2022-09-15T12:27:21.063Z,99407.69
2022-09-15T12:29:55.087Z,99406.44
2022-09-15T12:32:34.986Z,99400.16
2022-09-15T12:35:18.265Z,99383.13
2022-09-15T12:37:58.110Z,99392.91
2022-09-15T12:40:41.801Z,99402.72
2022-09-15T12:43:15.993Z,99391.22
2022-09-15T12:45:54.876Z,99382.47
2022-09-15T12:48:34.136Z,99377.16
2022-09-15T12:51:06.244Z,99374.59
2022-09-15T12:53:51.440Z,99380.25
2022-09-15T12:56:31.513Z,99369.44
2022-09-15T12:59:08.128Z,99362.34
2022-09-15T13:01:50.823Z,99368.81
2022-09-15T13:04:52.515Z,99354.94
2022-09-15T13:07:20.168Z,99362.19
2022-09-15T13:09:56.471Z,99356.88
2022-09-15T13:12:36.311Z,99361.63
2022-09-15T13:15:13.556Z,99347.56
2022-09-15T13:17:46.473Z,99343.59
2022-09-15T13:20:26.018Z,99343.59
2022-09-15T13:22:58.979Z,99343.78
2022-09-15T13:25:30.429Z,99339.97
2022-09-15T13:28:02.627Z,99338.75
2022-09-15T13:30:45.065Z,99344.25
2022-09-15T13:40:38.176Z,99318.88
2022-09-15T13:43:42.526Z,99316.59
2022-09-15T13:46:34.143Z,99308.28
2022-09-15T13:49:38.154Z,99303.91
2022-09-15T13:52:23.374Z,99302.13
2022-09-15T13:55:20.977Z,99302.31
2022-09-15T14:00:49.212Z,99302.41
2022-09-15T14:03:25.797Z,99306.88
2022-09-15T14:05:55.572Z,99308.13
2022-09-15T14:08:33.670Z,99299.59
2022-09-15T14:11:08.413Z,99299.13
2022-09-15T14:13:41.605Z,99297.88
2022-09-15T14:16:35.332Z,99286.16
2022-09-15T14:19:33.404Z,99280.19
2022-09-15T14:22:26.967Z,99268.03
2022-09-15T14:24:57.326Z,99264.31
2022-09-15T14:27:33.827Z,99266.13
2022-09-15T14:30:27.863Z,99257.88
2022-09-15T14:33:00.753Z,99246.53
2022-09-15T14:35:37.723Z,99242.75
2022-09-15T14:38:05.503Z,99251.50
2022-09-15T14:40:38.092Z,99245.47
2022-09-15T14:43:35.630Z,99247.44
2022-09-15T14:46:18.490Z,99247.81
2022-09-15T14:48:46.142Z,99239.28
2022-09-15T14:51:28.574Z,99229.97
2022-09-15T14:54:00.364Z,99239.19
2022-09-15T14:56:34.962Z,99242.91
2022-09-15T14:59:09.120Z,99230.09
2022-09-15T15:01:40.665Z,99226.28
2022-09-15T15:04:16.998Z,99232.31
2022-09-15T15:07:07.895Z,99243.78
2022-09-15T15:09:58.177Z,99219.47
2022-09-15T15:12:39.888Z,99222.13
2022-09-15T15:15:10.823Z,99224.41
2022-09-15T15:17:45.399Z,99222.91
2022-09-15T15:20:30.334Z,99219.00
2022-09-15T15:23:27.850Z,99205.94
2022-09-15T15:26:45.604Z,99204.94
2022-09-15T15:29:48.231Z,99198.47
2022-09-15T15:32:20.509Z,99199.41
2022-09-15T15:34:51.629Z,99203.13
2022-09-15T15:37:30.936Z,99205.31
2022-09-15T15:40:05.389Z,99201.41
2022-09-15T15:42:33.532Z,99197.72
2022-09-15T15:45:09.686Z,99207.31
2022-09-15T15:47:37.477Z,99202.53
2022-09-15T15:50:21.538Z,99199.03
2022-09-15T15:52:50.573Z,99204.03
2022-09-15T15:55:37.394Z,99194.19
2022-09-15T15:58:05.805Z,99191.63
2022-09-15T16:00:45.798Z,99188.56
2022-09-15T16:03:14.787Z,99191.25
2022-09-15T16:05:49.554Z,99195.69
2022-09-15T16:08:33.247Z,99198.28
2022-09-15T16:11:02.766Z,99197.22
2022-09-15T16:13:30.677Z,99194.59
2022-09-15T16:16:01.226Z,99194.75
2022-09-15T16:18:29.796Z,99184.34
2022-09-15T16:20:58.078Z,99192.00
2022-09-15T16:23:25.637Z,99193.38
2022-09-15T16:26:02.624Z,99196.22
2022-09-15T16:28:30.529Z,99189.34
2022-09-15T16:30:58.975Z,99183.22
2022-09-15T16:33:27.316Z,99193.84
2022-09-15T16:36:18.245Z,99194.72
2022-09-15T16:38:46.233Z,99183.84
2022-09-15T16:41:23.534Z,99179.19
2022-09-15T16:43:53.301Z,99187.81
2022-09-15T16:46:21.225Z,99187.94
2022-09-15T16:48:48.703Z,99181.56
2022-09-15T16:51:28.796Z,99186.72
2022-09-15T16:53:58.993Z,99188.59
2022-09-15T16:56:27.258Z,99196.75
2022-09-15T16:59:00.227Z,99183.69
2022-09-15T17:01:28.960Z,99184.81
2022-09-15T17:03:56.445Z,99184.72
2022-09-15T17:06:24.328Z,99190.09
2022-09-15T17:08:52.119Z,99193.47
2022-09-15T17:11:22.238Z,99184.38
2022-09-15T17:13:50.350Z,99187.31
2022-09-15T17:16:19.721Z,99180.19
2022-09-15T17:18:48.163Z,99176.09
2022-09-15T17:21:17.752Z,99184.81
2022-09-15T17:23:48.186Z,99184.72
2022-09-15T17:26:28.788Z,99174.66
2022-09-15T17:28:59.480Z,99172.84
2022-09-15T17:31:27.997Z,99176.53
2022-09-15T17:33:55.653Z,99178.25
2022-09-15T17:36:23.411Z,99171.97
2022-09-15T17:38:50.975Z,99174.44
2022-09-15T17:41:20.841Z,99163.16
2022-09-15T17:43:49.395Z,99167.44
2022-09-15T17:46:17.124Z,99177.66
2022-09-15T17:48:44.806Z,99178.09
2022-09-15T17:51:19.719Z,99176.59
2022-09-15T17:53:47.798Z,99172.34
2022-09-15T17:56:15.608Z,99173.56
2022-09-15T17:58:44.265Z,99175.25
2022-09-15T18:01:15.530Z,99176.00
2022-09-15T18:03:45.180Z,99176.00
2022-09-15T18:06:13.353Z,99174.50
2022-09-15T18:08:41.168Z,99181.50
2022-09-15T18:11:13.110Z,99164.56
2022-09-15T18:13:40.556Z,99174.03
2022-09-15T18:16:14.022Z,99179.53
2022-09-15T18:18:43.051Z,99190.81
2022-09-15T18:21:24.662Z,99194.31
2022-09-15T18:23:52.941Z,99187.31
2022-09-15T18:26:25.351Z,99191.28
2022-09-15T18:28:54.698Z,99188.25
2022-09-15T18:31:22.482Z,99192.19
2022-09-15T18:33:50.013Z,99189.91
2022-09-15T18:36:17.819Z,99191.91
2022-09-15T18:38:45.304Z,99190.69
2022-09-15T18:41:13.167Z,99186.72
2022-09-15T18:43:40.968Z,99179.72
2022-09-15T18:46:08.539Z,99184.25
2022-09-15T18:48:36.060Z,99183.50
2022-09-15T18:51:08.969Z,99179.53
2022-09-15T18:53:39.579Z,99187.78
2022-09-15T18:56:15.181Z,99191.00
2022-09-15T18:58:43.344Z,99214.19
2022-09-15T19:01:13.811Z,99267.59
2022-09-15T19:03:44.092Z,99256.63
2022-09-15T19:06:12.759Z,99266.13
2022-09-15T19:08:40.750Z,99284.16
2022-09-15T19:11:09.279Z,99286.94
2022-09-15T19:13:36.969Z,99304.38
2022-09-15T19:16:09.377Z,99303.66
2022-09-15T19:18:37.143Z,99319.03
2022-09-15T19:21:10.879Z,99303.69
2022-09-15T19:23:39.320Z,99306.28
2022-09-15T19:26:15.775Z,99312.34
2022-09-15T19:28:44.970Z,99325.84
2022-09-15T19:31:13.759Z,99319.56
2022-09-15T19:33:41.520Z,99321.34
2022-09-15T19:36:28.269Z,99311.09
2022-09-15T19:38:58.022Z,99310.25
2022-09-15T19:41:26.076Z,99305.34
2022-09-15T19:43:54.021Z,99312.34
2022-09-15T19:46:24.926Z,99306.22
2022-09-15T19:48:53.884Z,99307.91
2022-09-15T19:51:21.821Z,99302.22
2022-09-15T19:53:54.427Z,99297.03
2022-09-15T19:56:26.364Z,99300.19
2022-09-15T19:58:57.087Z,99301.75
2022-09-15T20:01:28.006Z,99305.69
2022-09-15T20:03:57.480Z,99304.91
2022-09-15T20:06:30.079Z,99299.44
2022-09-15T20:09:00.433Z,99301.88
2022-09-15T20:11:29.659Z,99311.28
2022-09-15T20:13:57.397Z,99309.75
2022-09-15T20:16:25.742Z,99309.00
2022-09-15T20:18:55.270Z,99306.69
2022-09-15T20:21:46.253Z,99302.91
2022-09-15T20:24:16.991Z,99298.31
2022-09-15T20:26:44.495Z,99294.50
2022-09-15T20:29:12.403Z,99302.38
2022-09-15T20:31:42.162Z,99298.75
2022-09-15T20:34:10.104Z,99295.28
2022-09-15T20:36:39.180Z,99305.75
2022-09-15T20:39:13.231Z,99303.78
2022-09-15T20:41:46.384Z,99310.00
2022-09-15T20:44:15.446Z,99302.59
2022-09-15T20:46:43.302Z,99304.53
2022-09-15T20:49:12.012Z,99302.25
2022-09-15T20:51:39.729Z,99303.78
2022-09-15T20:54:07.180Z,99307.28
2022-09-15T20:56:36.017Z,99312.75
2022-09-15T20:59:06.020Z,99293.59
2022-09-15T21:01:37.261Z,99289.34
2022-09-15T21:04:07.960Z,99288.56
2022-09-15T21:06:36.796Z,99295.28
2022-09-15T21:09:05.281Z,99285.22
2022-09-15T21:11:35.296Z,99289.94
2022-09-15T21:14:04.804Z,99275.03
2022-09-15T21:16:37.297Z,99281.16
2022-09-15T21:19:13.642Z,99335.72
2022-09-15T21:21:43.552Z,99360.13
2022-09-15T21:24:12.654Z,99312.19
2022-09-15T21:27:00.897Z,99326.38
2022-09-15T21:29:29.296Z,99319.31
2022-09-15T21:31:57.854Z,99316.56
2022-09-15T21:34:26.387Z,99328.13
2022-09-15T21:36:54.162Z,99314.34
2022-09-15T21:39:21.733Z,99316.50
2022-09-15T21:41:49.817Z,99337.50
2022-09-15T21:44:17.611Z,99346.44
2022-09-15T21:46:47.062Z,99358.63
2022-09-15T21:49:15.181Z,99391.75
2022-09-15T21:51:43.013Z,99392.94
2022-09-15T21:54:10.672Z,99404.22
2022-09-15T21:56:38.174Z,99416.25
2022-09-15T21:59:06.092Z,99425.66
2022-09-15T22:01:33.844Z,99425.31
2022-09-15T22:04:04.214Z,99431.22
2022-09-15T22:06:40.233Z,99437.94
2022-09-15T22:09:13.113Z,99425.44
2022-09-15T22:11:41.588Z,99428.19
2022-09-15T22:14:10.419Z,99429.06
2022-09-15T22:16:40.754Z,99447.91
2022-09-15T22:19:11.112Z,99469.13
2022-09-15T22:21:41.920Z,99482.50
2022-09-15T22:24:13.073Z,99487.50
2022-09-15T22:26:42.536Z,99486.88
2022-09-15T22:29:10.607Z,99486.19
2022-09-15T22:31:38.587Z,99484.69
2022-09-15T22:34:06.187Z,99491.47
2022-09-15T22:36:34.324Z,99503.94
2022-09-15T22:39:05.329Z,99513.56
2022-09-15T22:41:38.358Z,99507.13
2022-09-15T22:44:16.329Z,99527.22
2022-09-15T22:46:43.811Z,99538.56
2022-09-15T22:49:11.670Z,99555.22
2022-09-15T22:51:39.097Z,99570.59
2022-09-15T22:54:06.722Z,99578.25
2022-09-15T22:56:34.446Z,99575.50
2022-09-15T22:59:02.820Z,99577.13
2022-09-15T23:01:31.122Z,99559.16
2022-09-15T23:04:02.184Z,99562.00
2022-09-15T23:06:33.411Z,99552.28
2022-09-15T23:09:05.505Z,99554.00
2022-09-15T23:11:34.502Z,99548.97
2022-09-15T23:14:02.679Z,99537.97
2022-09-15T23:16:31.535Z,99534.69
2022-09-15T23:19:00.190Z,99535.63
2022-09-15T23:21:28.594Z,99531.44
2022-09-15T23:23:56.332Z,99520.50
2022-09-15T23:26:25.803Z,99524.94
2022-09-15T23:28:54.388Z,99528.09
2022-09-15T23:31:22.277Z,99509.66
2022-09-15T23:33:50.140Z,99499.44
2022-09-15T23:36:19.811Z,99477.69
2022-09-15T23:38:48.387Z,99496.38
2022-09-15T23:41:17.706Z,99497.03
2022-09-15T23:43:46.369Z,99456.09
2022-09-15T23:46:14.204Z,99426.72
2022-09-15T23:48:42.338Z,99431.31
2022-09-15T23:51:10.314Z,99443.22
2022-09-15T23:53:37.912Z,99425.75
2022-09-15T23:56:05.880Z,99435.91
2022-09-15T23:58:33.625Z,99435.25
